createdAt,value
2023-04-18T00:01:29.931Z,103953.20
2023-04-18T00:03:57.858Z,103953.60
2023-04-18T00:06:27.611Z,103956.40
2023-04-18T00:08:55.852Z,103949.00
2023-04-18T00:11:22.832Z,103949.40
2023-04-18T00:13:49.254Z,103945.40
2023-04-18T00:16:17.925Z,103946.00
2023-04-18T00:18:44.366Z,103944.60
2023-04-18T00:21:11.830Z,103942.60
2023-04-18T00:23:39.399Z,103944.40
2023-04-18T00:26:06.249Z,103951.20
2023-04-18T00:28:32.717Z,103942.20
2023-04-18T00:30:59.560Z,103948.00
2023-04-18T00:33:26.808Z,103950.00
2023-04-18T00:35:53.888Z,103950.00
2023-04-18T00:38:20.315Z,103952.00
2023-04-18T00:40:46.791Z,103950.80
2023-04-18T00:43:14.244Z,103951.00
2023-04-18T00:45:40.988Z,103950.40
2023-04-18T00:48:08.634Z,103955.20
2023-04-18T00:50:37.720Z,103955.40
2023-04-18T00:53:07.587Z,103954.80
2023-04-18T00:55:37.423Z,103959.60
2023-04-18T00:58:05.639Z,103960.40
2023-04-18T01:00:32.197Z,103962.80
2023-04-18T01:03:00.617Z,103962.40
2023-04-18T01:05:28.480Z,103960.60
2023-04-18T01:08:00.359Z,103961.20
2023-04-18T01:10:30.788Z,103960.60
2023-04-18T01:13:15.792Z,103956.80
2023-04-18T01:15:47.450Z,103959.40
2023-04-18T01:18:16.292Z,103958.80
2023-04-18T01:20:52.460Z,103964.80
2023-04-18T01:23:20.975Z,103963.40
2023-04-18T01:25:51.317Z,103963.40
2023-04-18T01:28:24.200Z,103963.80
2023-04-18T01:30:50.720Z,103964.40
2023-04-18T01:33:17.566Z,103965.80
2023-04-18T01:35:44.295Z,103973.20
2023-04-18T01:38:11.150Z,103974.80
2023-04-18T01:40:37.619Z,103971.00
2023-04-18T01:43:06.789Z,103972.80
2023-04-18T01:45:33.340Z,103973.00
2023-04-18T01:47:59.817Z,103969.00
2023-04-18T01:50:26.403Z,103966.40
2023-04-18T01:52:52.916Z,103972.20
2023-04-18T01:55:20.506Z,103976.00
2023-04-18T01:57:50.247Z,103973.40
2023-04-18T02:00:17.622Z,103975.60
2023-04-18T02:02:45.881Z,103981.00
2023-04-18T02:05:16.033Z,103981.40
2023-04-18T02:07:44.850Z,103982.00
2023-04-18T02:10:11.348Z,103983.00
2023-04-18T02:12:38.278Z,103985.60
2023-04-18T02:15:06.465Z,103987.20
2023-04-18T02:17:35.689Z,103990.40
2023-04-18T02:20:02.217Z,103994.40
2023-04-18T02:22:29.868Z,103997.00
2023-04-18T02:24:56.488Z,104000.40
2023-04-18T02:27:22.992Z,104000.00
2023-04-18T02:29:49.866Z,104003.20
2023-04-18T02:32:17.139Z,104003.00
2023-04-18T02:34:47.457Z,103996.40
2023-04-18T02:37:14.519Z,103994.40
2023-04-18T02:39:42.044Z,103991.20
2023-04-18T02:42:08.912Z,103989.80
2023-04-18T02:44:37.088Z,103992.20
2023-04-18T02:47:03.823Z,103991.40
2023-04-18T02:49:31.868Z,103993.40
2023-04-18T02:51:58.963Z,103992.40
2023-04-18T02:54:25.716Z,103992.00
2023-04-18T02:56:54.450Z,103992.60
2023-04-18T02:59:21.081Z,103996.40
2023-04-18T03:01:49.134Z,103997.80
2023-04-18T03:04:16.565Z,103995.20
2023-04-18T03:06:48.090Z,103997.20
2023-04-18T03:09:16.698Z,103997.60
2023-04-18T03:11:43.826Z,103994.80
2023-04-18T03:14:11.358Z,103995.80
2023-04-18T03:16:38.685Z,103996.00
2023-04-18T03:19:09.307Z,103996.80
2023-04-18T03:21:36.251Z,103997.00
2023-04-18T03:24:03.152Z,103999.80
2023-04-18T03:26:30.545Z,103996.40
2023-04-18T03:28:57.549Z,103998.20
2023-04-18T03:31:26.057Z,104000.40
2023-04-18T03:33:52.875Z,104005.40
2023-04-18T03:36:24.934Z,104013.60
2023-04-18T03:38:52.307Z,104007.20
2023-04-18T03:41:19.043Z,104011.00
2023-04-18T03:43:45.807Z,104011.80
2023-04-18T03:46:12.720Z,104018.60
2023-04-18T03:48:40.024Z,104021.80
2023-04-18T03:51:06.937Z,104024.20
2023-04-18T03:53:33.932Z,104020.20
2023-04-18T03:56:01.582Z,104019.60
2023-04-18T03:58:28.482Z,104019.40
2023-04-18T04:00:59.542Z,104018.80
2023-04-18T04:03:27.335Z,104022.00
2023-04-18T04:05:55.343Z,104023.80
2023-04-18T04:08:23.315Z,104023.80
2023-04-18T04:10:51.240Z,104023.60
2023-04-18T04:13:21.461Z,104023.80
2023-04-18T04:15:48.321Z,104027.00
2023-04-18T04:18:18.027Z,104028.60
2023-04-18T04:20:47.763Z,104031.60
2023-04-18T04:23:15.789Z,104034.40
2023-04-18T04:25:44.961Z,104033.80
2023-04-18T04:28:12.756Z,104037.60
2023-04-18T04:30:41.061Z,104034.00
2023-04-18T04:33:08.546Z,104038.40
2023-04-18T04:35:36.251Z,104044.00
2023-04-18T04:38:04.218Z,104044.00
2023-04-18T04:40:31.146Z,104047.80
2023-04-18T04:43:01.372Z,104043.20
2023-04-18T04:45:33.272Z,104051.00
2023-04-18T04:48:00.372Z,104054.00
2023-04-18T04:50:27.537Z,104054.80
2023-04-18T04:52:54.359Z,104055.80
2023-04-18T04:55:22.179Z,104057.60
2023-04-18T04:57:49.150Z,104060.20
2023-04-18T05:00:20.567Z,104057.80
2023-04-18T05:02:55.703Z,104061.80
2023-04-18T05:05:24.151Z,104064.00
2023-04-18T05:07:50.957Z,104066.80
2023-04-18T05:10:20.542Z,104068.40
2023-04-18T05:12:48.765Z,104069.80
2023-04-18T05:15:19.859Z,104073.20
2023-04-18T05:17:46.745Z,104073.20
2023-04-18T05:20:15.508Z,104075.80
2023-04-18T05:22:42.213Z,104076.60
2023-04-18T05:25:11.833Z,104083.00
2023-04-18T05:27:40.146Z,104084.80
2023-04-18T05:30:07.759Z,104085.20
2023-04-18T05:32:35.088Z,104084.60
2023-04-18T05:35:02.149Z,104090.00
2023-04-18T05:37:31.076Z,104094.40
2023-04-18T05:40:00.740Z,104090.60
2023-04-18T05:42:29.460Z,104102.80
2023-04-18T05:44:56.190Z,104103.40
2023-04-18T05:47:28.191Z,104100.80
2023-04-18T05:49:57.121Z,104101.60
2023-04-18T05:52:25.564Z,104104.60
2023-04-18T05:54:52.878Z,104107.00
2023-04-18T05:57:20.257Z,104101.60
2023-04-18T05:59:46.994Z,104104.40
2023-04-18T06:02:14.917Z,104104.40
2023-04-18T06:04:44.497Z,104103.00
2023-04-18T06:07:11.633Z,104100.80
2023-04-18T06:09:38.334Z,104105.40
2023-04-18T06:12:06.631Z,104108.20
2023-04-18T06:14:33.837Z,104106.60
2023-04-18T06:17:00.782Z,104106.40
2023-04-18T06:19:29.180Z,104105.80
2023-04-18T06:21:58.188Z,104106.80
2023-04-18T06:24:27.991Z,104105.80
2023-04-18T06:26:57.783Z,104110.80
2023-04-18T06:29:30.772Z,104108.60
2023-04-18T06:31:58.794Z,104110.00
2023-04-18T06:34:25.785Z,104112.60
2023-04-18T06:36:53.768Z,104110.20
2023-04-18T06:39:20.877Z,104112.00
2023-04-18T06:41:50.448Z,104110.80
2023-04-18T06:44:17.347Z,104112.60
2023-04-18T06:46:48.792Z,104112.60
2023-04-18T06:49:18.435Z,104113.20
2023-04-18T06:51:45.505Z,104114.00
2023-04-18T06:54:12.356Z,104114.80
2023-04-18T06:56:39.318Z,104114.40
2023-04-18T06:59:06.319Z,104122.60
2023-04-18T07:01:33.704Z,104124.40
2023-04-18T07:04:02.718Z,104126.00
2023-04-18T07:06:29.566Z,104129.80
2023-04-18T07:09:01.963Z,104131.60
2023-04-18T07:11:30.072Z,104131.20
2023-04-18T07:13:59.852Z,104133.20
2023-04-18T07:16:29.061Z,104135.60
2023-04-18T07:18:57.042Z,104132.20
2023-04-18T07:21:26.931Z,104136.40
2023-04-18T07:23:53.781Z,104134.20
2023-04-18T07:26:20.832Z,104135.00
2023-04-18T07:28:49.262Z,104136.80
2023-04-18T07:31:18.366Z,104137.40
2023-04-18T07:33:47.711Z,104139.40
2023-04-18T07:36:19.490Z,104145.20
2023-04-18T07:38:47.456Z,104137.60
2023-04-18T07:41:19.223Z,104143.00
2023-04-18T07:43:45.923Z,104147.80
2023-04-18T07:46:12.939Z,104144.40
2023-04-18T07:48:40.100Z,104143.60
2023-04-18T07:51:10.684Z,104145.00
2023-04-18T07:53:40.448Z,104140.20
2023-04-18T07:56:07.182Z,104146.60
2023-04-18T07:58:35.512Z,104142.40
2023-04-18T08:01:07.132Z,104149.80
2023-04-18T08:03:39.009Z,104149.00
2023-04-18T08:06:07.396Z,104152.20
2023-04-18T08:08:37.282Z,104152.40
2023-04-18T08:11:04.056Z,104151.80
2023-04-18T08:13:31.025Z,104153.00
2023-04-18T08:15:59.220Z,104158.00
2023-04-18T08:18:26.512Z,104155.60
2023-04-18T08:20:53.368Z,104159.00
2023-04-18T08:23:20.949Z,104158.20
2023-04-18T08:25:47.917Z,104159.80
2023-04-18T08:28:15.103Z,104155.40
2023-04-18T08:30:43.655Z,104160.20
2023-04-18T08:33:19.408Z,104163.80
2023-04-18T08:35:46.840Z,104163.80
2023-04-18T08:38:14.267Z,104164.60
2023-04-18T08:40:43.455Z,104168.20
2023-04-18T08:43:16.085Z,104170.40
2023-04-18T08:45:45.612Z,104169.00
2023-04-18T08:48:17.584Z,104171.40
2023-04-18T08:50:50.112Z,104175.00
2023-04-18T08:53:18.148Z,104169.80
2023-04-18T08:55:50.135Z,104166.00
2023-04-18T08:58:25.065Z,104169.80
2023-04-18T09:00:56.375Z,104178.00
2023-04-18T09:03:43.881Z,104179.20
2023-04-18T09:06:35.827Z,104174.20
2023-04-18T09:09:04.592Z,104177.60
2023-04-18T09:11:33.777Z,104181.20
2023-04-18T09:14:00.933Z,104179.80
2023-04-18T09:16:28.628Z,104178.80
2023-04-18T09:19:17.895Z,104179.00
2023-04-18T09:21:48.076Z,104182.00
2023-04-18T09:24:31.913Z,104177.20
2023-04-18T09:27:00.778Z,104174.00
2023-04-18T09:29:51.307Z,104179.40
2023-04-18T09:32:24.583Z,104180.80
2023-04-18T09:35:01.385Z,104177.60
2023-04-18T09:37:30.119Z,104174.00
2023-04-18T09:39:56.509Z,104173.40
2023-04-18T09:42:25.053Z,104180.20
2023-04-18T09:45:07.641Z,104179.80
2023-04-18T09:47:37.099Z,104179.00
2023-04-18T09:50:07.945Z,104179.60
2023-04-18T09:52:37.847Z,104173.80
2023-04-18T09:55:09.237Z,104173.00
2023-04-18T09:57:42.581Z,104175.60
2023-04-18T10:00:23.434Z,104170.60
2023-04-18T10:02:58.507Z,104169.40
2023-04-18T10:05:34.068Z,104165.00
2023-04-18T10:08:05.506Z,104164.20
2023-04-18T10:10:34.010Z,104167.00
2023-04-18T10:13:06.416Z,104168.20
2023-04-18T10:15:33.677Z,104171.60
2023-04-18T10:18:10.822Z,104166.00
2023-04-18T10:20:41.169Z,104169.60
2023-04-18T10:23:35.660Z,104161.60
2023-04-18T10:26:09.270Z,104164.60
2023-04-18T10:28:58.980Z,104167.80
2023-04-18T10:31:28.330Z,104174.40
2023-04-18T10:36:30.549Z,104177.40
2023-04-18T10:39:21.314Z,104172.60
2023-04-18T10:41:50.986Z,104167.40
2023-04-18T10:44:24.257Z,104170.00
2023-04-18T10:46:56.842Z,104162.80
2023-04-18T10:49:33.000Z,104161.40
2023-04-18T10:52:02.598Z,104156.20
2023-04-18T10:54:38.628Z,104159.00
2023-04-18T10:57:08.365Z,104154.20
2023-04-18T10:59:41.150Z,104153.80
2023-04-18T11:02:26.606Z,104153.40
2023-04-18T11:04:56.233Z,104147.60
2023-04-18T11:07:39.800Z,104145.60
2023-04-18T11:10:09.593Z,104146.40
2023-04-18T11:12:40.948Z,104148.40
2023-04-18T11:15:28.592Z,104142.20
2023-04-18T11:18:03.615Z,104136.40
2023-04-18T11:20:41.667Z,104141.80
2023-04-18T11:23:24.710Z,104136.40
2023-04-18T11:25:58.737Z,104133.80
2023-04-18T11:28:26.224Z,104135.40
2023-04-18T11:30:59.742Z,104132.80
2023-04-18T11:33:30.048Z,104130.80
2023-04-18T11:36:03.893Z,104128.20
2023-04-18T11:38:31.792Z,104124.40
2023-04-18T11:40:58.767Z,104125.20
2023-04-18T11:43:25.760Z,104126.60
2023-04-18T11:45:58.520Z,104124.40
2023-04-18T11:48:44.522Z,104125.40
2023-04-18T11:51:31.670Z,104124.60
2023-04-18T11:53:58.730Z,104121.80
2023-04-18T11:56:25.468Z,104123.40
2023-04-18T11:58:53.917Z,104123.20
2023-04-18T12:01:24.764Z,104119.60
2023-04-18T12:04:06.690Z,104124.20
2023-04-18T12:06:53.285Z,104123.60
2023-04-18T12:09:25.658Z,104125.20
2023-04-18T12:12:03.342Z,104121.00
2023-04-18T12:14:39.177Z,104114.60
2023-04-18T12:17:06.110Z,104119.80
2023-04-18T12:19:33.648Z,104119.40
2023-04-18T12:22:06.850Z,104119.60
2023-04-18T12:24:37.315Z,104115.20
2023-04-18T12:27:04.531Z,104104.80
2023-04-18T12:29:35.159Z,104102.20
2023-04-18T12:32:02.137Z,104106.00
2023-04-18T12:34:30.193Z,104101.80
2023-04-18T12:36:58.351Z,104106.80
2023-04-18T12:39:25.992Z,104098.40
2023-04-18T12:41:54.054Z,104097.80
2023-04-18T12:44:24.087Z,104099.80
2023-04-18T12:46:50.689Z,104099.40
2023-04-18T12:49:17.221Z,104096.00
2023-04-18T12:51:44.028Z,104100.80
2023-04-18T12:54:10.770Z,104097.40
2023-04-18T12:56:37.400Z,104095.00
2023-04-18T12:59:05.121Z,104096.20
2023-04-18T13:01:33.439Z,104095.60
2023-04-18T13:04:11.481Z,104096.80
2023-04-18T13:06:39.825Z,104097.40
2023-04-18T13:09:09.713Z,104093.20
2023-04-18T13:11:36.422Z,104086.80
2023-04-18T13:14:03.682Z,104089.60
2023-04-18T13:16:30.978Z,104096.40
2023-04-18T13:18:57.859Z,104086.20
2023-04-18T13:21:26.282Z,104086.20
2023-04-18T13:23:55.155Z,104082.20
2023-04-18T13:26:22.627Z,104074.80
2023-04-18T13:28:50.962Z,104074.20
2023-04-18T13:31:17.740Z,104074.00
2023-04-18T13:33:45.823Z,104077.20
2023-04-18T13:36:14.903Z,104071.60
2023-04-18T13:38:41.953Z,104068.80
2023-04-18T13:41:12.905Z,104070.00
2023-04-18T13:43:40.330Z,104067.20
2023-04-18T13:46:08.281Z,104069.20
2023-04-18T13:48:34.832Z,104064.00
2023-04-18T13:51:02.631Z,104063.20
2023-04-18T13:53:32.171Z,104070.40
2023-04-18T13:56:01.057Z,104063.40
2023-04-18T13:58:27.639Z,104062.20
2023-04-18T14:00:55.470Z,104065.00
2023-04-18T14:03:22.407Z,104067.60
2023-04-18T14:05:50.983Z,104062.00
2023-04-18T14:08:17.432Z,104063.60
2023-04-18T14:10:44.492Z,104058.40
2023-04-18T14:13:15.048Z,104059.00
2023-04-18T14:15:41.493Z,104058.00
2023-04-18T14:18:08.092Z,104058.40
2023-04-18T14:20:36.052Z,104056.00
2023-04-18T14:23:04.565Z,104060.60
2023-04-18T14:25:31.225Z,104050.40
2023-04-18T14:28:10.187Z,104045.00
2023-04-18T14:30:40.187Z,104046.80
2023-04-18T14:33:09.047Z,104044.40
2023-04-18T14:35:35.953Z,104040.60
2023-04-18T14:38:08.451Z,104045.00
2023-04-18T14:40:35.769Z,104041.60
2023-04-18T14:43:03.042Z,104039.00
2023-04-18T14:45:34.016Z,104040.40
2023-04-18T14:48:01.376Z,104038.60
2023-04-18T14:50:31.065Z,104042.00
2023-04-18T14:52:59.226Z,104043.20
2023-04-18T14:55:26.818Z,104044.60
2023-04-18T14:57:56.819Z,104043.80
2023-04-18T15:00:23.541Z,104040.40
2023-04-18T15:02:51.993Z,104042.40
2023-04-18T15:05:23.800Z,104037.00
2023-04-18T15:07:51.908Z,104037.80
2023-04-18T15:10:21.800Z,104044.20
2023-04-18T15:12:48.784Z,104039.80
2023-04-18T15:15:21.244Z,104042.60
2023-04-18T15:17:47.749Z,104034.40
2023-04-18T15:20:15.157Z,104036.60
2023-04-18T15:22:41.595Z,104035.80
2023-04-18T15:25:08.674Z,104035.60
2023-04-18T15:27:36.745Z,104035.20
2023-04-18T15:30:12.239Z,104034.80
2023-04-18T15:32:41.505Z,104033.20
2023-04-18T15:35:11.217Z,104031.80
2023-04-18T15:37:37.868Z,104038.60
2023-04-18T15:40:08.913Z,104034.60
2023-04-18T15:42:36.548Z,104040.20
2023-04-18T15:45:04.349Z,104040.20
2023-04-18T15:47:55.978Z,104038.60
2023-04-18T15:50:23.932Z,104033.40
2023-04-18T15:52:50.524Z,104042.60
2023-04-18T15:55:18.244Z,104038.40
2023-04-18T15:57:46.187Z,104036.20
2023-04-18T16:00:15.578Z,104036.80
2023-04-18T16:02:46.755Z,104039.20
2023-04-18T16:05:14.498Z,104042.80
2023-04-18T16:07:44.170Z,104045.20
2023-04-18T16:10:13.286Z,104046.00
2023-04-18T16:12:41.051Z,104046.60
2023-04-18T16:15:10.228Z,104047.20
2023-04-18T16:17:37.906Z,104042.60
2023-04-18T16:20:07.499Z,104044.20
2023-04-18T16:22:35.062Z,104052.20
2023-04-18T16:25:03.781Z,104050.20
2023-04-18T16:27:32.363Z,104048.80
2023-04-18T16:30:01.079Z,104049.00
2023-04-18T16:32:29.756Z,104043.80
2023-04-18T16:34:57.734Z,104045.20
2023-04-18T16:37:25.916Z,104043.00
2023-04-18T16:39:52.609Z,104042.80
2023-04-18T16:42:19.188Z,104042.20
2023-04-18T16:44:47.616Z,104047.00
2023-04-18T16:47:14.380Z,104040.00
2023-04-18T16:49:44.448Z,104045.00
2023-04-18T16:52:14.821Z,104043.40
2023-04-18T16:54:41.815Z,104045.00
2023-04-18T16:57:08.304Z,104043.40
2023-04-18T16:59:36.812Z,104038.20
2023-04-18T17:02:05.109Z,104038.20
2023-04-18T17:04:33.762Z,104046.20
2023-04-18T17:07:03.794Z,104042.80
2023-04-18T17:09:33.720Z,104049.00
2023-04-18T17:12:01.273Z,104050.60
2023-04-18T17:14:28.364Z,104054.00
2023-04-18T17:16:55.182Z,104059.20
2023-04-18T17:19:23.463Z,104056.20
2023-04-18T17:21:51.537Z,104055.80
2023-04-18T17:24:22.182Z,104057.80
2023-04-18T17:26:49.054Z,104055.20
2023-04-18T17:29:16.216Z,104051.80
2023-04-18T17:31:46.398Z,104057.20
2023-04-18T17:34:15.069Z,104050.60
2023-04-18T17:36:44.973Z,104053.40
2023-04-18T17:39:22.417Z,104057.00
2023-04-18T17:41:50.377Z,104060.40
2023-04-18T17:44:16.782Z,104059.60
2023-04-18T17:46:45.089Z,104060.80
2023-04-18T17:49:20.066Z,104062.80
2023-04-18T17:51:47.634Z,104062.20
2023-04-18T17:54:15.778Z,104066.60
2023-04-18T17:56:44.860Z,104066.80
2023-04-18T17:59:11.630Z,104064.60
2023-04-18T18:01:39.446Z,104060.40
2023-04-18T18:04:08.932Z,104063.20
2023-04-18T18:06:35.571Z,104061.60
2023-04-18T18:09:02.797Z,104064.40
2023-04-18T18:11:29.871Z,104064.40
2023-04-18T18:13:56.875Z,104067.80
2023-04-18T18:16:26.143Z,104064.20
2023-04-18T18:18:54.082Z,104059.80
2023-04-18T18:21:21.639Z,104059.60
2023-04-18T18:23:48.113Z,104050.20
2023-04-18T18:26:14.692Z,104050.20
2023-04-18T18:28:41.228Z,104044.80
2023-04-18T18:31:08.654Z,104042.60
2023-04-18T18:33:36.699Z,104038.00
2023-04-18T18:36:06.711Z,104031.80
2023-04-18T18:38:34.240Z,104035.40
2023-04-18T18:41:03.628Z,104037.80
2023-04-18T18:43:32.712Z,104031.40
2023-04-18T18:46:01.011Z,104034.60
2023-04-18T18:48:28.687Z,104035.20
2023-04-18T18:50:56.654Z,104035.20
2023-04-18T18:53:23.091Z,104029.80
2023-04-18T18:55:51.657Z,104034.40
2023-04-18T18:58:18.300Z,104037.60
2023-04-18T19:00:48.489Z,104040.20
2023-04-18T19:03:18.352Z,104038.20
2023-04-18T19:05:46.875Z,104039.80
2023-04-18T19:08:14.828Z,104047.00
2023-04-18T19:10:42.769Z,104040.60
2023-04-18T19:13:09.867Z,104041.20
2023-04-18T19:15:47.799Z,104041.00
2023-04-18T19:18:18.257Z,104042.60
2023-04-18T19:20:52.490Z,104041.00
2023-04-18T19:23:19.309Z,104039.80
2023-04-18T19:25:46.828Z,104034.80
2023-04-18T19:28:18.384Z,104039.40
2023-04-18T19:30:47.036Z,104035.20
2023-04-18T19:33:13.910Z,104036.60
2023-04-18T19:35:41.011Z,104031.60
2023-04-18T19:38:08.802Z,104031.80
2023-04-18T19:40:38.448Z,104030.80
2023-04-18T19:43:05.543Z,104033.60
2023-04-18T19:45:34.418Z,104037.60
2023-04-18T19:48:03.367Z,104037.00
2023-04-18T19:50:32.233Z,104037.40
2023-04-18T19:53:00.471Z,104039.80
2023-04-18T19:55:28.755Z,104042.00
2023-04-18T19:57:59.625Z,104037.20
2023-04-18T20:00:27.120Z,104040.60
2023-04-18T20:02:54.968Z,104043.40
2023-04-18T20:05:21.937Z,104040.40
2023-04-18T20:07:50.368Z,104041.40
2023-04-18T20:10:21.892Z,104044.00
2023-04-18T20:12:50.038Z,104047.40
2023-04-18T20:15:18.044Z,104045.00
2023-04-18T20:17:47.768Z,104051.00
2023-04-18T20:20:14.960Z,104054.20
2023-04-18T20:22:44.081Z,104051.60
2023-04-18T20:25:10.753Z,104051.60
2023-04-18T20:27:37.308Z,104050.00
2023-04-18T20:30:08.043Z,104050.00
2023-04-18T20:32:35.236Z,104052.40
2023-04-18T20:35:04.317Z,104055.60
2023-04-18T20:37:40.631Z,104050.60
2023-04-18T20:40:09.390Z,104053.00
2023-04-18T20:42:38.138Z,104052.00
2023-04-18T20:45:10.261Z,104056.00
2023-04-18T20:47:36.978Z,104064.00
2023-04-18T20:50:03.941Z,104070.00
2023-04-18T20:52:30.476Z,104072.20
2023-04-18T20:54:56.997Z,104066.20
2023-04-18T20:57:23.593Z,104077.20
2023-04-18T20:59:50.134Z,104078.20
2023-04-18T21:02:18.604Z,104074.60
2023-04-18T21:04:46.361Z,104075.20
2023-04-18T21:07:13.793Z,104077.60
2023-04-18T21:09:40.978Z,104083.20
2023-04-18T21:12:07.495Z,104084.00
2023-04-18T21:14:33.939Z,104083.20
2023-04-18T21:17:01.176Z,104081.60
2023-04-18T21:19:28.060Z,104083.60
2023-04-18T21:21:54.473Z,104085.60
2023-04-18T21:24:24.657Z,104084.60
2023-04-18T21:26:52.532Z,104084.80
2023-04-18T21:29:21.041Z,104087.60
2023-04-18T21:31:49.685Z,104089.00
2023-04-18T21:34:16.745Z,104085.80
2023-04-18T21:36:43.545Z,104085.00
2023-04-18T21:39:11.938Z,104082.00
2023-04-18T21:41:38.578Z,104087.20
2023-04-18T21:44:06.062Z,104086.20
2023-04-18T21:46:32.908Z,104092.40
2023-04-18T21:49:03.557Z,104091.80
2023-04-18T21:51:31.875Z,104090.40
2023-04-18T21:53:59.864Z,104097.20
2023-04-18T21:56:27.006Z,104102.60
2023-04-18T21:58:53.521Z,104105.40
2023-04-18T22:01:20.131Z,104106.20
2023-04-18T22:03:48.918Z,104105.60
2023-04-18T22:06:15.665Z,104106.80
2023-04-18T22:08:42.803Z,104108.00
2023-04-18T22:11:11.285Z,104106.40
2023-04-18T22:13:39.332Z,104105.20
2023-04-18T22:16:07.585Z,104108.00
2023-04-18T22:18:37.618Z,104107.80
2023-04-18T22:21:06.105Z,104111.20
2023-04-18T22:23:32.643Z,104106.80
2023-04-18T22:26:02.721Z,104105.60
2023-04-18T22:28:32.736Z,104104.60
2023-04-18T22:31:02.506Z,104105.60
2023-04-18T22:33:31.603Z,104105.40
2023-04-18T22:35:58.472Z,104105.60
2023-04-18T22:38:25.195Z,104107.00
2023-04-18T22:40:53.340Z,104102.00
2023-04-18T22:43:23.336Z,104107.00
2023-04-18T22:45:51.627Z,104111.00
2023-04-18T22:48:19.418Z,104111.00
2023-04-18T22:50:46.925Z,104112.20
2023-04-18T22:53:15.791Z,104116.60
2023-04-18T22:55:45.748Z,104117.20
2023-04-18T22:58:13.912Z,104115.80
2023-04-18T23:00:44.870Z,104114.40
2023-04-18T23:03:11.985Z,104118.40
2023-04-18T23:05:40.752Z,104118.60
2023-04-18T23:08:07.381Z,104119.80
2023-04-18T23:10:34.121Z,104123.20
2023-04-18T23:13:02.003Z,104129.60
2023-04-18T23:15:29.853Z,104130.40
2023-04-18T23:17:56.344Z,104131.20
2023-04-18T23:20:25.945Z,104132.80
2023-04-18T23:22:53.262Z,104135.80
2023-04-18T23:25:19.985Z,104134.00
2023-04-18T23:27:47.184Z,104135.40
2023-04-18T23:30:16.860Z,104138.80
2023-04-18T23:32:43.419Z,104143.00
2023-04-18T23:35:10.988Z,104140.00
2023-04-18T23:37:37.746Z,104139.40
2023-04-18T23:40:09.487Z,104144.60
2023-04-18T23:42:37.205Z,104144.80
2023-04-18T23:45:05.200Z,104142.60
2023-04-18T23:47:32.583Z,104135.60
2023-04-18T23:49:59.352Z,104137.00
2023-04-18T23:52:25.818Z,104141.00
2023-04-18T23:54:52.998Z,104136.40
2023-04-18T23:57:19.974Z,104142.60
2023-04-18T23:59:46.800Z,104140.20
